Time;durP1;ratioP1;P1;durP2;ratioP2;P2;SDS_P1;SDS_P2;PMS_P1;PMS_P2;Temp;Humidity;BMP_temperature;BMP_pressure;BME280_temperature;BME280_humidity;BME280_pressure;Samples;Min_cycle;Max_cycle;Signal;HPM_P1;HPM_P2
2024/01/30 00:13:16;;;;;;;14.13;2.05;;;;;;;2.50;100.00;101429.91;4824440;29;20145;-93
2024/01/30 00:16:22;;;;;;;13.07;3.10;;;;;;;2.46;100.00;101430.03;4825222;29;20054;-92
2024/01/30 00:19:02;;;;;;;12.35;3.05;;;;;;;2.41;100.00;101431.13;4835000;29;20045;-93
2024/01/30 00:21:31;;;;;;;11.95;2.65;;;;;;;2.42;100.00;101425.84;4877281;29;21126;-94
2024/01/30 00:28:33;;;;;;;10.20;2.45;;;;;;;2.50;100.00;101432.50;4968593;28;20047;-93
2024/01/30 00:31:29;;;;;;;14.43;2.25;;;;;;;2.45;100.00;101432.72;4923414;28;20027;-94
2024/01/30 00:34:04;;;;;;;11.77;3.45;;;;;;;2.29;100.00;101424.69;4936949;28;20064;-94
2024/01/30 00:36:58;;;;;;;10.85;2.67;;;;;;;2.35;100.00;101434.88;4926423;28;20035;-93
2024/01/30 00:39:23;;;;;;;12.70;2.85;;;;;;;2.29;100.00;101433.38;4943791;28;20055;-95
2024/01/30 00:42:14;;;;;;;11.70;2.72;;;;;;;2.32;100.00;101432.41;4935060;28;20035;-94
2024/01/30 00:44:40;;;;;;;11.95;3.13;;;;;;;2.30;100.00;101429.84;4932314;28;20039;-95
2024/01/30 00:50:30;;;;;;;11.60;2.78;;;;;;;2.32;100.00;101445.44;4937698;28;20046;-92
2024/01/30 00:52:56;;;;;;;12.55;2.38;;;;;;;2.28;100.00;101434.28;4930553;28;20484;-95
2024/01/30 00:56:11;;;;;;;11.95;2.85;;;;;;;2.31;100.00;101436.75;4927335;28;20038;-95
2024/01/30 00:58:38;;;;;;;14.60;2.92;;;;;;;2.28;100.00;101441.28;4941743;28;20141;-94
2024/01/30 01:01:04;;;;;;;9.13;3.38;;;;;;;2.29;100.00;101445.56;4925272;28;20500;-94
2024/01/30 01:03:59;;;;;;;10.40;2.47;;;;;;;2.32;100.00;101441.06;4939672;28;20027;-95
2024/01/30 01:06:26;;;;;;;10.63;2.55;;;;;;;2.30;100.00;101444.66;4934552;29;20051;-94
2024/01/30 01:12:16;;;;;;;12.00;2.53;;;;;;;2.21;100.00;101435.47;4955167;28;20038;-94
2024/01/30 01:14:42;;;;;;;10.07;2.72;;;;;;;2.25;100.00;101454.41;4950294;28;20085;-95
2024/01/30 01:17:23;;;;;;;14.65;2.35;;;;;;;2.26;100.00;101449.16;4939950;28;20066;-94
2024/01/30 01:20:23;;;;;;;10.35;3.20;;;;;;;2.27;100.00;101456.06;4937963;28;20070;-95
2024/01/30 01:22:57;;;;;;;8.57;2.20;;;;;;;2.23;100.00;101459.69;4962525;28;20046;-94
2024/01/30 01:26:35;;;;;;;12.15;2.72;;;;;;;2.20;100.00;101460.69;4916736;28;20051;-94
2024/01/30 01:32:56;;;;;;;11.57;2.42;;;;;;;2.17;100.00;101466.03;4936547;28;20097;-96
2024/01/30 01:53:04;;;;;;;9.50;1.95;;;;;;;2.17;100.00;101489.50;4880154;29;20042;-95
2024/01/30 02:03:56;;;;;;;8.43;2.10;;;;;;;2.08;100.00;101489.91;4968378;28;20138;-95
2024/01/30 02:14:57;;;;;;;;;;;;;;;;;;;;;
2024/01/30 02:18:41;;;;;;;9.18;2.65;;;;;;;2.00;100.00;101511.06;4959412;28;20397;-95
2024/01/30 02:34:49;;;;;;;10.73;2.75;;;;;;;1.99;100.00;101517.22;4977805;28;20053;-96
2024/01/30 02:54:20;;;;;;;;;;;;;;;;;;;;;
2024/01/30 03:02:04;;;;;;;9.63;2.63;;;;;;;1.78;100.00;101526.72;4935030;29;20456;-95
2024/01/30 03:05:28;;;;;;;;;;;;;;;;;;;;;
2024/01/30 03:08:50;;;;;;;12.45;2.45;;;;;;;1.67;100.00;101527.16;4930177;29;20600;-95
2024/01/30 03:11:16;;;;;;;11.13;2.92;;;;;;;1.62;100.00;101522.09;4912206;28;20051;-96
2024/01/30 03:13:52;;;;;;;6.72;3.30;;;;;;;1.64;100.00;101520.28;4939902;28;20030;-96
2024/01/30 03:16:19;;;;;;;6.80;2.78;;;;;;;1.52;100.00;101521.59;4939634;28;20035;-96
2024/01/30 03:19:07;;;;;;;6.80;2.17;;;;;;;1.45;100.00;101525.38;4944978;28;20093;-96
2024/01/30 03:21:36;;;;;;;9.48;3.10;;;;;;;1.42;100.00;101526.31;4937908;28;20137;-95
2024/01/30 03:24:13;;;;;;;13.47;3.80;;;;;;;1.38;100.00;101531.69;4929795;28;20039;-95
2024/01/30 03:26:39;;;;;;;9.30;2.78;;;;;;;1.38;100.00;101549.94;4957863;28;20564;-95
2024/01/30 03:29:09;;;;;;;11.43;2.60;;;;;;;1.44;100.00;101536.66;4943068;28;20108;-95
2024/01/30 03:31:35;;;;;;;13.32;2.90;;;;;;;1.43;100.00;101537.59;4942717;28;20039;-95
2024/01/30 03:34:02;;;;;;;12.65;3.35;;;;;;;1.43;100.00;101532.38;4943706;28;20557;-95
2024/01/30 03:36:29;;;;;;;9.00;2.30;;;;;;;1.52;100.00;101546.81;4947493;28;20477;-96
2024/01/30 03:38:55;;;;;;;8.57;2.15;;;;;;;1.53;100.00;101549.34;4941916;28;20060;-95
2024/01/30 03:41:30;;;;;;;11.82;2.60;;;;;;;1.59;100.00;101548.28;4926771;28;20065;-95
2024/01/30 03:44:02;;;;;;;6.90;2.47;;;;;;;1.56;100.00;101554.44;4952033;28;20076;-95
2024/01/30 03:46:37;;;;;;;8.80;2.10;;;;;;;1.50;100.00;101559.88;4960145;28;20073;-96
2024/01/30 03:49:04;;;;;;;14.75;3.00;;;;;;;1.52;100.00;101562.44;4929200;28;20039;-96
2024/01/30 03:51:30;;;;;;;10.40;2.60;;;;;;;1.47;100.00;101560.00;4928480;28;20027;-95
2024/01/30 03:53:56;;;;;;;10.15;2.67;;;;;;;1.44;100.00;101575.75;4921042;29;20039;-96
2024/01/30 03:56:22;;;;;;;11.93;2.35;;;;;;;1.36;100.00;101568.22;4925152;28;20085;-95
2024/01/30 03:58:49;;;;;;;9.63;2.10;;;;;;;1.35;100.00;101571.75;4934350;28;20085;-95
2024/01/30 04:01:19;;;;;;;14.70;3.38;;;;;;;1.34;100.00;101570.88;4927152;28;20073;-95
2024/01/30 04:03:48;;;;;;;12.82;2.88;;;;;;;1.25;100.00;101579.03;4940864;28;20034;-95
2024/01/30 04:06:19;;;;;;;9.60;2.55;;;;;;;1.24;100.00;101572.13;4945161;28;20047;-95
2024/01/30 04:08:45;;;;;;;7.47;2.20;;;;;;;1.23;100.00;101591.25;4940774;28;20125;-94
2024/01/30 04:11:14;;;;;;;12.25;2.88;;;;;;;1.21;100.00;101580.06;4937488;28;20114;-95
2024/01/30 04:13:40;;;;;;;11.48;2.67;;;;;;;1.09;100.00;101578.72;4938370;29;20379;-95
2024/01/30 04:16:06;;;;;;;8.80;2.58;;;;;;;1.09;100.00;101583.94;4936835;29;20059;-96
2024/01/30 04:18:36;;;;;;;12.60;3.30;;;;;;;1.05;100.00;101580.59;4932583;29;20120;-94
2024/01/30 04:21:02;;;;;;;7.28;2.70;;;;;;;1.10;100.00;101593.44;4935031;28;20405;-94
2024/01/30 04:23:35;;;;;;;8.52;3.03;;;;;;;1.11;100.00;101593.38;4943862;28;20529;-94
2024/01/30 04:26:13;;;;;;;6.97;2.60;;;;;;;1.22;100.00;101584.38;4941871;28;20477;-96
2024/01/30 04:28:55;;;;;;;;;;;;;;;;;;;;;
2024/01/30 04:31:28;;;;;;;14.18;2.83;;;;;;;1.20;100.00;101605.25;4952062;28;20035;-95
2024/01/30 04:33:54;;;;;;;10.93;3.30;;;;;;;1.11;100.00;101596.00;4926159;28;20055;-95
2024/01/30 04:36:20;;;;;;;9.77;3.03;;;;;;;1.14;100.00;101602.00;4924740;28;20035;-94
2024/01/30 04:38:46;;;;;;;10.57;3.05;;;;;;;1.12;100.00;101599.47;4950003;28;20062;-94
2024/01/30 04:41:14;;;;;;;13.25;3.83;;;;;;;1.13;100.00;101600.31;4924797;28;20042;-95
2024/01/30 04:43:40;;;;;;;12.40;3.65;;;;;;;1.13;100.00;101610.72;4924755;28;20035;-94
2024/01/30 04:46:06;;;;;;;8.50;3.08;;;;;;;1.17;100.00;101617.53;4939362;28;20461;-95
2024/01/30 04:48:32;;;;;;;17.67;3.92;;;;;;;1.14;100.00;101612.44;4917001;28;20038;-94
2024/01/30 04:51:01;;;;;;;11.88;3.30;;;;;;;1.07;100.00;101614.38;4940740;28;20107;-95
2024/01/30 04:53:27;;;;;;;12.40;3.53;;;;;;;1.13;100.00;101613.34;4927252;28;20066;-96
2024/01/30 04:55:53;;;;;;;11.10;4.25;;;;;;;1.08;100.00;101611.72;4916204;28;20038;-95
2024/01/30 04:58:19;;;;;;;8.75;3.80;;;;;;;1.12;100.00;101620.28;4924694;28;20550;-94
2024/01/30 05:00:48;;;;;;;16.80;4.50;;;;;;;1.18;100.00;101624.44;4943289;28;20038;-96
2024/01/30 05:03:14;;;;;;;12.55;3.97;;;;;;;1.15;100.00;101622.78;4944101;28;20038;-96
2024/01/30 05:05:40;;;;;;;14.32;3.88;;;;;;;1.17;100.00;101620.13;4957665;28;20042;-95
2024/01/30 05:08:09;;;;;;;12.23;3.28;;;;;;;1.19;100.00;101615.72;4919608;29;20079;-95
2024/01/30 05:10:35;;;;;;;11.98;4.03;;;;;;;1.23;100.00;101628.59;4918936;28;20035;-95
2024/01/30 05:13:02;;;;;;;11.27;3.90;;;;;;;1.24;100.00;101632.06;4962894;28;20046;-96
2024/01/30 05:15:28;;;;;;;11.45;3.30;;;;;;;1.25;100.00;101631.13;4939288;28;20043;-95
2024/01/30 05:17:54;;;;;;;12.73;3.40;;;;;;;1.21;100.00;101624.34;4923050;28;20043;-96
2024/01/30 05:20:20;;;;;;;11.82;3.22;;;;;;;1.23;100.00;101636.41;4951416;28;20035;-95
2024/01/30 05:22:46;;;;;;;13.73;3.20;;;;;;;1.26;100.00;101643.25;4931244;28;20182;-95
2024/01/30 05:25:13;;;;;;;26.38;4.60;;;;;;;1.30;100.00;101638.78;4925823;28;20042;-96
2024/01/30 05:27:39;;;;;;;15.18;3.05;;;;;;;1.35;100.00;101648.13;4941084;28;20042;-96
2024/01/30 05:30:08;;;;;;;7.93;3.17;;;;;;;1.39;100.00;101655.84;4936802;28;20102;-96
2024/01/30 05:32:35;;;;;;;12.75;3.55;;;;;;;1.37;100.00;101655.88;4940358;28;20052;-96
2024/01/30 05:35:01;;;;;;;11.70;3.05;;;;;;;1.38;100.00;101662.81;4928087;28;20058;-95
2024/01/30 05:37:32;;;;;;;7.90;2.88;;;;;;;1.33;100.00;101662.13;4957229;28;20027;-95
2024/01/30 05:40:01;;;;;;;11.35;2.63;;;;;;;1.27;100.00;101663.19;4949909;28;20038;-95
2024/01/30 05:42:27;;;;;;;8.90;2.55;;;;;;;1.21;100.00;101664.25;4923006;28;20070;-96
2024/01/30 05:44:53;;;;;;;12.38;3.00;;;;;;;1.24;100.00;101669.34;4938079;28;20047;-95
2024/01/30 05:47:19;;;;;;;7.75;2.22;;;;;;;1.27;100.00;101677.97;4938851;28;20112;-96
2024/01/30 05:49:48;;;;;;;11.48;1.50;;;;;;;1.24;100.00;101673.72;4950370;28;20038;-95
2024/01/30 05:52:17;;;;;;;5.40;1.38;;;;;;;1.29;100.00;101670.97;4932547;28;20066;-95
2024/01/30 05:54:43;;;;;;;5.82;1.73;;;;;;;1.27;100.00;101671.00;4923111;28;20655;-96
2024/01/30 05:57:09;;;;;;;6.53;1.60;;;;;;;1.34;100.00;101677.69;4956108;28;20054;-88
2024/01/30 05:59:36;;;;;;;9.57;2.03;;;;;;;1.30;100.00;101670.91;4947129;28;20043;-95
2024/01/30 06:02:05;;;;;;;7.10;1.75;;;;;;;1.31;100.00;101675.19;4939340;28;20043;-95
2024/01/30 06:04:33;;;;;;;5.45;1.85;;;;;;;1.35;100.00;101687.19;4944610;28;20035;-93
2024/01/30 06:07:10;;;;;;;7.32;1.98;;;;;;;1.30;100.00;101683.06;4928724;28;20047;-96
2024/01/30 06:09:41;;;;;;;7.00;2.17;;;;;;;1.18;100.00;101686.97;4941084;28;20049;-94
2024/01/30 06:12:07;;;;;;;8.57;2.90;;;;;;;1.06;100.00;101685.59;4927744;28;20038;-96
2024/01/30 06:14:34;;;;;;;12.70;2.83;;;;;;;0.92;100.00;101697.34;4939803;28;20543;-95
2024/01/30 06:17:03;;;;;;;12.55;2.55;;;;;;;0.81;100.00;101699.44;4939163;28;20053;-88
2024/01/30 06:19:29;;;;;;;7.78;2.47;;;;;;;0.70;100.00;101699.78;4929536;28;20037;-94
2024/01/30 06:21:55;;;;;;;8.82;2.75;;;;;;;0.64;100.00;101697.38;4943607;28;20039;-96
2024/01/30 06:24:24;;;;;;;10.48;3.00;;;;;;;0.58;100.00;101701.00;4924969;29;20071;-94
2024/01/30 06:26:50;;;;;;;12.93;4.25;;;;;;;0.71;100.00;101698.88;4953406;28;20042;-87
2024/01/30 06:29:16;;;;;;;15.30;2.45;;;;;;;0.68;100.00;101704.19;4940128;28;20039;-88
2024/01/30 06:31:45;;;;;;;17.13;2.83;;;;;;;0.63;100.00;101712.13;4926033;28;20043;-87
2024/01/30 06:34:11;;;;;;;7.35;2.10;;;;;;;0.66;100.00;101711.16;4960717;28;20483;-89
2024/01/30 06:36:38;;;;;;;8.45;2.65;;;;;;;0.71;100.00;101717.09;4929533;28;20039;-88
2024/01/30 06:39:04;;;;;;;8.40;1.95;;;;;;;0.71;100.00;101717.09;4958490;28;20229;-86
2024/01/30 06:41:30;;;;;;;9.43;2.22;;;;;;;0.75;100.00;101721.28;4931360;28;20054;-88
2024/01/30 06:43:56;;;;;;;10.90;2.55;;;;;;;0.74;100.00;101717.00;4957986;28;20471;-88
2024/01/30 06:46:22;;;;;;;7.85;2.38;;;;;;;0.66;100.00;101724.19;4942761;28;20035;-89
2024/01/30 06:48:47;;;;;;;10.98;2.00;;;;;;;0.62;100.00;101733.84;4965477;28;20042;-87
2024/01/30 06:51:13;;;;;;;8.07;2.58;;;;;;;0.54;100.00;101741.88;4960472;28;20046;-90
2024/01/30 06:53:39;;;;;;;5.90;2.22;;;;;;;0.53;100.00;101744.53;4945012;28;20042;-89
2024/01/30 06:56:05;;;;;;;8.35;2.42;;;;;;;0.54;100.00;101752.28;4932905;28;20802;-89
2024/01/30 06:58:32;;;;;;;6.95;2.20;;;;;;;0.51;100.00;101746.34;4942832;28;20045;-89
2024/01/30 07:00:58;;;;;;;11.15;2.50;;;;;;;0.42;100.00;101755.25;4937384;28;20103;-89
2024/01/30 07:03:24;;;;;;;8.43;2.15;;;;;;;0.34;100.00;101758.09;4925521;28;20092;-89
2024/01/30 07:05:50;;;;;;;10.02;2.92;;;;;;;0.33;100.00;101769.41;4944886;28;20133;-89
2024/01/30 07:08:18;;;;;;;4.85;2.00;;;;;;;0.32;100.00;101763.31;4955125;28;20064;-87
2024/01/30 07:10:44;;;;;;;10.52;2.22;;;;;;;0.29;100.00;101773.00;4949313;28;20066;-87
2024/01/30 07:13:11;;;;;;;15.15;2.90;;;;;;;0.33;100.00;101778.06;4940094;28;20076;-87
2024/01/30 07:15:37;;;;;;;13.13;2.80;;;;;;;0.39;100.00;101783.97;4939673;28;20038;-87
2024/01/30 07:18:04;;;;;;;4.43;1.80;;;;;;;0.33;100.00;101775.47;4939438;28;20455;-87
2024/01/30 07:20:31;;;;;;;11.38;2.40;;;;;;;0.27;100.00;101780.81;4959340;28;20069;-87
2024/01/30 07:23:00;;;;;;;8.65;3.47;;;;;;;0.28;100.00;101779.94;4920368;28;20046;-87
2024/01/30 07:25:26;;;;;;;8.18;2.45;;;;;;;0.23;100.00;101781.81;4958637;28;20481;-87
2024/01/30 07:27:53;;;;;;;10.63;2.65;;;;;;;0.23;100.00;101774.00;4935000;28;20643;-87
2024/01/30 07:30:20;;;;;;;6.07;1.70;;;;;;;0.20;100.00;101774.94;4962543;28;20066;-87
2024/01/30 07:32:46;;;;;;;8.48;2.63;;;;;;;0.21;100.00;101780.97;4953013;28;20508;-88
2024/01/30 07:35:13;;;;;;;9.50;2.10;;;;;;;0.25;100.00;101785.22;4953766;28;20058;-86
2024/01/30 07:37:39;;;;;;;9.05;1.98;;;;;;;0.26;100.00;101786.06;4926047;29;20105;-87
2024/01/30 07:40:06;;;;;;;11.23;2.28;;;;;;;0.27;100.00;101787.78;4934837;28;20478;-85
2024/01/30 07:42:33;;;;;;;8.07;2.28;;;;;;;0.30;100.00;101798.97;4935894;29;20360;-88
2024/01/30 07:45:00;;;;;;;3.88;1.67;;;;;;;0.32;100.00;101804.13;4918817;28;20647;-87
2024/01/30 07:47:25;;;;;;;7.45;2.25;;;;;;;0.32;100.00;101809.31;4955665;28;20030;-87
2024/01/30 07:49:52;;;;;;;9.02;2.67;;;;;;;0.28;100.00;101808.53;4942977;28;20474;-88
2024/01/30 07:52:18;;;;;;;8.50;3.05;;;;;;;0.25;100.00;101816.44;4932032;29;20119;-88
2024/01/30 07:54:44;;;;;;;12.57;2.90;;;;;;;0.23;100.00;101823.41;4941234;29;20105;-87
2024/01/30 07:57:10;;;;;;;10.57;2.72;;;;;;;0.26;100.00;101819.88;4947158;28;20039;-88
2024/01/30 07:59:35;;;;;;;11.70;2.45;;;;;;;0.24;100.00;101822.50;4919493;29;20130;-88
2024/01/30 08:02:01;;;;;;;8.07;1.90;;;;;;;0.28;100.00;101812.88;4939568;28;20540;-89
2024/01/30 08:04:27;;;;;;;7.50;2.42;;;;;;;0.29;100.00;101825.84;4922275;29;20031;-88
2024/01/30 08:06:52;;;;;;;5.47;1.95;;;;;;;0.32;100.00;101836.16;4935716;28;20041;-86
2024/01/30 08:09:18;;;;;;;11.48;2.58;;;;;;;0.32;100.00;101836.16;4904292;28;20043;-87
2024/01/30 08:11:46;;;;;;;7.20;2.30;;;;;;;0.34;100.00;101844.78;4933043;28;20052;-87
2024/01/30 08:14:13;;;;;;;6.95;1.83;;;;;;;0.35;100.00;101841.28;4903778;29;20050;-88
2024/01/30 08:16:39;;;;;;;8.48;2.20;;;;;;;0.31;100.00;101844.88;4922920;28;20051;-87
2024/01/30 08:19:05;;;;;;;10.98;2.45;;;;;;;0.26;100.00;101838.94;4909787;28;20043;-88
2024/01/30 08:21:35;;;;;;;9.25;2.20;;;;;;;0.24;100.00;101853.72;4928204;28;20042;-88
2024/01/30 08:24:05;;;;;;;12.35;2.13;;;;;;;0.29;100.00;101856.22;4920778;28;20058;-89
2024/01/30 08:26:32;;;;;;;3.40;1.80;;;;;;;0.31;100.00;101860.47;4912848;29;20055;-87
2024/01/30 08:28:58;;;;;;;7.05;1.98;;;;;;;0.29;100.00;101859.66;4907704;28;20181;-87
2024/01/30 08:31:23;;;;;;;7.97;2.88;;;;;;;0.30;100.00;101869.19;4934560;29;20075;-88
2024/01/30 08:33:52;;;;;;;11.55;2.17;;;;;;;0.31;100.00;101875.22;4921555;28;20035;-87
2024/01/30 08:36:18;;;;;;;11.73;2.67;;;;;;;0.27;100.00;101882.25;4942623;28;20044;-88
2024/01/30 08:38:44;;;;;;;10.65;2.47;;;;;;;0.22;100.00;101876.34;4940672;28;20343;-88
2024/01/30 08:41:09;;;;;;;6.75;2.00;;;;;;;0.15;100.00;101875.63;4936662;28;20041;-88
2024/01/30 08:43:36;;;;;;;6.88;3.13;;;;;;;0.10;100.00;101865.34;4943537;28;20099;-90
2024/01/30 08:46:02;;;;;;;4.43;2.08;;;;;;;0.13;100.00;101879.19;4947838;28;20039;-85
2024/01/30 08:48:28;;;;;;;10.32;2.00;;;;;;;0.14;100.00;101883.47;4969811;28;20035;-85
2024/01/30 08:50:54;;;;;;;6.72;2.08;;;;;;;0.19;100.00;101892.84;4942167;28;20038;-87
2024/01/30 08:53:19;;;;;;;9.80;1.92;;;;;;;0.20;100.00;101884.16;4958828;28;20038;-87
2024/01/30 08:55:45;;;;;;;5.18;2.00;;;;;;;0.23;100.00;101884.09;4949501;28;20044;-87
2024/01/30 08:58:11;;;;;;;8.93;2.33;;;;;;;0.22;100.00;101890.16;4955319;28;20054;-88
2024/01/30 09:00:36;;;;;;;9.63;2.17;;;;;;;0.21;100.00;101896.28;4948513;29;20039;-89
2024/01/30 09:03:05;;;;;;;5.53;1.95;;;;;;;0.26;100.00;101909.16;4969536;28;20038;-89
2024/01/30 09:05:31;;;;;;;9.85;2.35;;;;;;;0.26;100.00;101906.56;4942028;28;20066;-88
2024/01/30 09:07:57;;;;;;;10.90;1.92;;;;;;;0.34;100.00;101904.59;4923893;28;20136;-88
2024/01/30 09:10:23;;;;;;;7.90;2.58;;;;;;;0.41;100.00;101907.03;4940434;28;20041;-88
2024/01/30 09:12:49;;;;;;;8.68;2.33;;;;;;;0.46;100.00;101907.78;4939222;28;20053;-87
2024/01/30 09:15:15;;;;;;;9.52;2.80;;;;;;;0.54;100.00;101907.56;4937605;29;20053;-88
2024/01/30 09:17:40;;;;;;;4.28;1.77;;;;;;;0.63;100.00;101904.69;4953857;28;20125;-88
2024/01/30 09:20:06;;;;;;;7.65;2.35;;;;;;;0.77;100.00;101908.63;4947729;28;20038;-89
2024/01/30 09:22:32;;;;;;;4.88;2.45;;;;;;;0.86;100.00;101909.22;4938362;28;20028;-89
2024/01/30 09:24:58;;;;;;;9.80;3.38;;;;;;;0.89;100.00;101918.72;4934480;28;20138;-89
2024/01/30 09:27:24;;;;;;;7.18;2.28;;;;;;;0.89;100.00;101918.72;4946589;28;20031;-88
2024/01/30 09:29:50;;;;;;;4.93;2.45;;;;;;;0.94;100.00;101913.38;4921212;28;20477;-88
2024/01/30 09:32:17;;;;;;;11.93;3.50;;;;;;;0.95;100.00;101922.88;4921329;28;20062;-88
2024/01/30 09:34:43;;;;;;;11.13;3.30;;;;;;;0.96;100.00;101919.38;4946922;28;20449;-87
2024/01/30 09:37:09;;;;;;;9.20;4.70;;;;;;;0.99;100.00;101921.88;4954855;28;20038;-88
2024/01/30 09:39:35;;;;;;;17.40;4.28;;;;;;;0.99;100.00;101920.16;4921419;28;20046;-89
2024/01/30 09:42:05;;;;;;;11.27;3.85;;;;;;;0.97;100.00;101924.53;4968802;28;20441;-89
2024/01/30 09:44:34;;;;;;;12.85;3.78;;;;;;;1.00;100.00;101934.03;4925097;28;20385;-88
2024/01/30 09:47:03;;;;;;;16.90;5.43;;;;;;;1.02;100.00;101924.41;4932703;28;20042;-89
2024/01/30 09:49:35;;;;;;;10.93;2.90;;;;;;;1.09;100.00;101922.47;4939358;28;20043;-90
2024/01/30 09:52:06;;;;;;;11.82;2.47;;;;;;;1.13;100.00;101936.28;4938092;28;20047;-88
2024/01/30 09:54:32;;;;;;;9.27;2.95;;;;;;;1.12;100.00;101938.00;4954415;28;21393;-89
2024/01/30 09:56:58;;;;;;;9.00;3.58;;;;;;;1.21;100.00;101944.72;4939420;28;20516;-88
2024/01/30 09:59:24;;;;;;;11.48;3.60;;;;;;;1.34;100.00;101945.16;4940290;28;20042;-89
2024/01/30 10:01:50;;;;;;;9.27;3.05;;;;;;;1.51;100.00;101936.84;4963496;28;20038;-88
2024/01/30 10:04:16;;;;;;;7.18;2.55;;;;;;;1.68;100.00;101949.34;4927167;28;20031;-88
2024/01/30 10:06:42;;;;;;;9.93;2.65;;;;;;;1.76;100.00;101940.41;4926740;28;20489;-88
2024/01/30 10:09:09;;;;;;;6.22;2.92;;;;;;;1.86;100.00;101952.28;4943418;28;20047;-88
2024/01/30 10:11:36;;;;;;;13.30;3.47;;;;;;;1.94;100.00;101952.03;4960390;28;20038;-88
2024/01/30 10:14:02;;;;;;;10.38;2.92;;;;;;;2.04;100.00;101949.97;4940171;28;20063;-88
2024/01/30 10:16:28;;;;;;;5.75;2.92;;;;;;;2.09;100.00;101958.47;4941944;28;20031;-87
2024/01/30 10:18:53;;;;;;;9.73;4.45;;;;;;;2.09;100.00;101961.94;4938458;28;20126;-88
2024/01/30 10:21:19;;;;;;;9.63;3.95;;;;;;;2.12;100.00;101955.75;4938796;28;20054;-91
2024/01/30 10:23:45;;;;;;;9.65;4.25;;;;;;;2.06;100.00;101946.38;4944996;28;20583;-89
2024/01/30 10:26:11;;;;;;;13.73;2.97;;;;;;;2.03;100.00;101943.03;4969995;28;20046;-89
2024/01/30 10:28:37;;;;;;;10.13;3.08;;;;;;;2.02;100.00;101947.41;4938854;28;20038;-89
2024/01/30 10:31:06;;;;;;;9.18;2.95;;;;;;;2.07;100.00;101947.25;4936154;28;20050;-89
2024/01/30 10:33:32;;;;;;;7.18;2.50;;;;;;;2.12;100.00;101947.09;4943191;28;20033;-90
2024/01/30 10:36:02;;;;;;;11.88;2.88;;;;;;;2.19;100.00;101961.63;4927946;28;20051;-89
2024/01/30 10:38:32;;;;;;;11.68;4.32;;;;;;;2.29;100.00;101955.22;4944406;28;20063;-88
2024/01/30 10:40:59;;;;;;;18.85;6.05;;;;;;;2.38;100.00;101956.63;4917608;28;20050;-89
2024/01/30 10:43:36;;;;;;;8.07;3.00;;;;;;;2.57;100.00;101959.44;4974002;28;20037;-89
2024/01/30 10:46:15;;;;;;;7.45;2.50;;;;;;;2.69;100.00;101954.72;4940156;28;20108;-90
2024/01/30 10:48:44;;;;;;;16.10;9.30;;;;;;;2.78;100.00;101967.44;4960402;28;20034;-90
2024/01/30 10:51:14;;;;;;;9.23;3.83;;;;;;;2.86;100.00;101980.22;4968105;28;20042;-90
2024/01/30 10:53:41;;;;;;;8.95;2.97;;;;;;;2.86;100.00;101982.81;4927972;28;20031;-90
2024/01/30 10:56:09;;;;;;;10.93;3.97;;;;;;;2.92;100.00;101990.44;4955051;28;20038;-89
2024/01/30 10:58:35;;;;;;;10.75;4.78;;;;;;;3.05;100.00;101988.22;4950838;29;20031;-90
2024/01/30 11:01:07;;;;;;;20.48;9.82;;;;;;;3.15;100.00;101980.91;4948409;28;20045;-88
2024/01/30 11:03:36;;;;;;;17.98;8.07;;;;;;;3.17;100.00;101973.00;4935944;28;20102;-91
2024/01/30 11:06:03;;;;;;;13.88;8.32;;;;;;;3.32;100.00;101993.31;4930712;28;20041;-89
2024/01/30 11:08:32;;;;;;;11.52;6.38;;;;;;;3.47;100.00;101991.88;4944388;28;20078;-89
2024/01/30 11:10:58;;;;;;;17.80;8.93;;;;;;;3.60;100.00;101996.63;4925760;28;20039;-90
2024/01/30 11:13:31;;;;;;;13.70;4.93;;;;;;;3.69;100.00;101983.19;4928438;28;20054;-89
2024/01/30 11:16:04;;;;;;;15.88;3.70;;;;;;;3.81;100.00;101981.84;4945926;28;20035;-89
2024/01/30 11:18:33;;;;;;;14.40;6.65;;;;;;;3.90;100.00;101982.41;4959490;28;20102;-89
2024/01/30 11:21:01;;;;;;;11.65;4.60;;;;;;;4.00;100.00;101981.09;4929374;29;20483;-87
2024/01/30 11:23:28;;;;;;;15.40;5.90;;;;;;;4.12;100.00;101984.97;4945078;28;20034;-84
2024/01/30 11:25:54;;;;;;;10.93;4.88;;;;;;;4.22;100.00;101977.59;4967818;28;20041;-84
2024/01/30 11:32:23;;;;;;;9.38;2.97;;;;;;;4.25;100.00;101976.63;4928356;29;20043;-83
2024/01/30 11:34:50;;;;;;;10.52;2.40;;;;;;;4.20;100.00;101972.41;4914793;29;20056;-85
2024/01/30 11:37:19;;;;;;;7.82;2.25;;;;;;;4.25;100.00;101969.63;4967350;28;20055;-85
2024/01/30 11:39:46;;;;;;;8.68;3.03;;;;;;;4.30;100.00;101962.41;4944533;29;20050;-85
2024/01/30 11:42:13;;;;;;;9.93;2.38;;;;;;;4.36;100.00;101968.28;4952624;28;20042;-84
2024/01/30 11:44:39;;;;;;;5.05;1.88;;;;;;;4.40;100.00;101975.09;4963603;28;20045;-83
2024/01/30 11:47:05;;;;;;;6.57;2.90;;;;;;;4.45;100.00;101973.13;4938347;29;20493;-84
2024/01/30 11:49:30;;;;;;;9.45;3.38;;;;;;;4.46;100.00;101966.97;4968342;28;20050;-84
2024/01/30 11:51:56;;;;;;;7.90;2.65;;;;;;;4.52;100.00;101958.88;4941018;28;20234;-85
2024/01/30 11:54:22;;;;;;;8.10;2.20;;;;;;;4.58;100.00;101950.75;4950275;28;20117;-83
2024/01/30 11:56:48;;;;;;;7.45;1.70;;;;;;;4.62;100.00;101940.13;4955185;28;20544;-84
2024/01/30 11:59:14;;;;;;;9.27;2.40;;;;;;;4.67;100.00;101939.00;4946704;28;20031;-83
2024/01/30 12:01:40;;;;;;;7.30;2.30;;;;;;;4.70;100.00;101932.75;4943744;28;20043;-90
2024/01/30 12:04:08;;;;;;;11.52;2.80;;;;;;;4.75;100.00;101929.94;4926143;28;20035;-93
2024/01/30 12:06:34;;;;;;;10.35;5.63;;;;;;;4.76;100.00;101935.09;4932440;29;20031;-93
2024/01/30 12:09:06;;;;;;;7.35;2.42;;;;;;;4.86;100.00;101939.97;4920138;28;20135;-93
2024/01/30 12:11:32;;;;;;;9.60;2.80;;;;;;;4.79;100.00;101937.63;4942810;28;20038;-92
2024/01/30 12:13:58;;;;;;;6.35;1.95;;;;;;;4.81;100.00;101948.84;4938767;28;20067;-93
2024/01/30 12:16:24;;;;;;;10.40;2.50;;;;;;;4.82;100.00;101947.09;4918956;28;20038;-92
2024/01/30 12:18:59;;;;;;;8.13;2.20;;;;;;;4.87;100.00;101942.50;4916596;28;20493;-93
2024/01/30 12:21:25;;;;;;;10.57;2.10;;;;;;;4.90;100.00;101942.38;4939837;28;20035;-92
2024/01/30 12:23:51;;;;;;;10.48;2.40;;;;;;;4.99;100.00;101934.97;4938634;28;20030;-92
2024/01/30 12:26:17;;;;;;;8.05;2.13;;;;;;;5.01;100.00;101933.16;4932144;28;20062;-86
2024/01/30 12:28:49;;;;;;;15.18;2.25;;;;;;;5.15;100.00;101927.25;4950869;28;20039;-85
2024/01/30 12:31:15;;;;;;;13.43;3.05;;;;;;;5.17;100.00;101920.19;4943770;28;20056;-85
2024/01/30 12:33:41;;;;;;;13.02;3.17;;;;;;;5.30;100.00;101923.91;4949841;28;20049;-87
2024/01/30 12:36:07;;;;;;;11.50;2.83;;;;;;;5.39;100.00;101927.88;4946482;28;20051;-86
2024/01/30 12:38:33;;;;;;;10.55;2.38;;;;;;;5.49;100.00;101923.06;4946536;28;20042;-86
2024/01/30 12:40:59;;;;;;;9.45;2.63;;;;;;;5.60;100.00;101917.28;4952255;28;20026;-86
2024/01/30 12:43:25;;;;;;;8.13;2.25;;;;;;;5.71;100.00;101919.38;4921506;29;20090;-87
2024/01/30 12:45:52;;;;;;;11.13;2.38;;;;;;;5.83;100.00;101925.78;4932382;28;20397;-87
2024/01/30 12:48:18;;;;;;;6.50;2.10;;;;;;;5.95;100.00;101921.69;4970300;28;20647;-86
2024/01/30 12:50:44;;;;;;;9.85;2.20;;;;;;;6.10;100.00;101925.34;4931620;29;20046;-86
2024/01/30 12:53:10;;;;;;;7.88;2.15;;;;;;;6.23;100.00;101917.69;4943061;28;20070;-86
2024/01/30 12:55:35;;;;;;;9.07;1.67;;;;;;;6.36;100.00;101906.53;4922212;28;20053;-86
2024/01/30 12:58:01;;;;;;;9.25;1.45;;;;;;;6.50;100.00;101906.66;4933347;28;20035;-86
2024/01/30 13:00:27;;;;;;;8.00;1.52;;;;;;;6.60;100.00;101901.78;4953828;28;20129;-86
2024/01/30 13:02:53;;;;;;;4.60;1.20;;;;;;;6.73;100.00;101898.50;4936681;28;20612;-86
2024/01/30 13:05:19;;;;;;;6.10;1.58;;;;;;;6.84;100.00;101896.13;4923303;28;20614;-86
2024/01/30 13:07:45;;;;;;;4.80;1.27;;;;;;;6.91;100.00;101896.66;4956541;28;20113;-87
2024/01/30 13:10:10;;;;;;;5.28;1.33;;;;;;;7.01;100.00;101905.72;4934757;28;20031;-85
2024/01/30 13:12:38;;;;;;;4.95;1.48;;;;;;;7.12;100.00;101906.91;4945608;28;20043;-86
2024/01/30 13:15:05;;;;;;;18.45;12.80;;;;;;;7.25;100.00;101904.44;4936300;28;20043;-89
2024/01/30 13:17:32;;;;;;;15.50;4.50;;;;;;;7.30;100.00;101899.75;4941509;28;20035;-86